Terminal Aerodrome Forecast
Issued by NWS

Home | Current Version | Previous Version | Text Only | Print | Product List | Glossary On
Versions: 1 2 3 4 5 6 7 8 9 10 11 12 13 14 15 16 17
000
FTUS43 KDVN 291604 AAB
TAFBRL
TAF AMD
KBRL 291604Z 2916/3012 VRB03KT P6SM OVC018
     FM291900 32005KT P6SM BKN025
     FM292100 15006KT P6SM VCSH BKN040
     FM300800 06002KT 4SM BR FEW100=

USA.gov is the U.S. government's official web portal to all federal, state and local government web resources and services.